sensor_id;sensor_type;location;lat;lon;timestamp;temperature;humidity
1992;DHT22;997;48.448;8.924;2022-11-09T04:01:34;12.20;99.90
1992;DHT22;997;48.448;8.924;2022-11-09T04:04:00;12.10;99.90
1992;DHT22;997;48.448;8.924;2022-11-09T04:06:26;12.10;99.90
1992;DHT22;997;48.448;8.924;2022-11-09T04:08:51;12.10;99.90
1992;DHT22;997;48.448;8.924;2022-11-09T04:11:17;12.00;99.90
1992;DHT22;997;48.448;8.924;2022-11-09T04:17:02;11.90;99.90
1992;DHT22;997;48.448;8.924;2022-11-09T04:19:28;11.70;99.90
1992;DHT22;997;48.448;8.924;2022-11-09T04:21:53;11.70;99.90
1992;DHT22;997;48.448;8.924;2022-11-09T04:24:19;11.70;99.90
1992;DHT22;997;48.448;8.924;2022-11-09T04:26:46;11.70;99.90
1992;DHT22;997;48.448;8.924;2022-11-09T04:29:12;11.70;99.90
1992;DHT22;997;48.448;8.924;2022-11-09T04:31:37;11.70;99.90
1992;DHT22;997;48.448;8.924;2022-11-09T04:34:03;11.60;99.90
1992;DHT22;997;48.448;8.924;2022-11-09T04:36:29;11.50;99.90
1992;DHT22;997;48.448;8.924;2022-11-09T04:38:54;11.40;99.90
1992;DHT22;997;48.448;8.924;2022-11-09T04:41:20;11.30;99.90
1992;DHT22;997;48.448;8.924;2022-11-09T04:43:46;11.20;99.90
1992;DHT22;997;48.448;8.924;2022-11-09T04:46:12;11.10;99.90
1992;DHT22;997;48.448;8.924;2022-11-09T04:48:37;11.20;99.90
1992;DHT22;997;48.448;8.924;2022-11-09T04:51:06;11.10;99.90
1992;DHT22;997;48.448;8.924;2022-11-09T04:53:33;11.10;99.90
1992;DHT22;997;48.448;8.924;2022-11-09T04:55:58;11.00;99.90
1992;DHT22;997;48.448;8.924;2022-11-09T04:58:24;11.00;99.90
1992;DHT22;997;48.448;8.924;2022-11-09T05:00:51;11.00;99.90
1992;DHT22;997;48.448;8.924;2022-11-09T05:03:17;11.00;99.90
1992;DHT22;997;48.448;8.924;2022-11-09T05:05:43;11.00;99.90
1992;DHT22;997;48.448;8.924;2022-11-09T05:08:08;10.90;99.90
1992;DHT22;997;48.448;8.924;2022-11-09T05:10:35;10.90;99.90
1992;DHT22;997;48.448;8.924;2022-11-09T05:13:06;10.90;99.90
1992;DHT22;997;48.448;8.924;2022-11-09T05:15:33;10.90;99.90
1992;DHT22;997;48.448;8.924;2022-11-09T05:17:59;10.90;99.90
1992;DHT22;997;48.448;8.924;2022-11-09T05:20:26;10.90;99.90
1992;DHT22;997;48.448;8.924;2022-11-09T05:22:52;10.90;99.90
1992;DHT22;997;48.448;8.924;2022-11-09T05:25:37;10.90;99.90
1992;DHT22;997;48.448;8.924;2022-11-09T05:28:03;10.90;99.90
1992;DHT22;997;48.448;8.924;2022-11-09T05:30:28;11.00;99.90
1992;DHT22;997;48.448;8.924;2022-11-09T05:32:54;11.00;99.90
1992;DHT22;997;48.448;8.924;2022-11-09T05:35:20;11.10;99.90
1992;DHT22;997;48.448;8.924;2022-11-09T05:37:47;11.10;99.90
1992;DHT22;997;48.448;8.924;2022-11-09T05:40:14;11.30;99.90
1992;DHT22;997;48.448;8.924;2022-11-09T05:42:40;11.40;99.90
1992;DHT22;997;48.448;8.924;2022-11-09T05:45:11;11.40;99.90
1992;DHT22;997;48.448;8.924;2022-11-09T05:47:38;11.60;99.90
1992;DHT22;997;48.448;8.924;2022-11-09T05:50:05;11.60;99.90
1992;DHT22;997;48.448;8.924;2022-11-09T05:52:31;11.70;99.90
1992;DHT22;997;48.448;8.924;2022-11-09T05:54:57;11.70;99.90
1992;DHT22;997;48.448;8.924;2022-11-09T05:57:25;11.70;99.90
1992;DHT22;997;48.448;8.924;2022-11-09T05:59:51;11.80;99.90
1992;DHT22;997;48.448;8.924;2022-11-09T06:02:17;11.80;99.90
1992;DHT22;997;48.448;8.924;2022-11-09T06:04:42;11.90;99.90
1992;DHT22;997;48.448;8.924;2022-11-09T06:07:08;12.00;99.90
1992;DHT22;997;48.448;8.924;2022-11-09T06:09:34;12.00;99.90
1992;DHT22;997;48.448;8.924;2022-11-09T06:11:59;11.90;99.90
1992;DHT22;997;48.448;8.924;2022-11-09T06:14:25;11.90;99.90
1992;DHT22;997;48.448;8.924;2022-11-09T06:16:51;11.90;99.90
1992;DHT22;997;48.448;8.924;2022-11-09T06:19:16;12.00;99.90
1992;DHT22;997;48.448;8.924;2022-11-09T06:21:42;12.00;99.90
1992;DHT22;997;48.448;8.924;2022-11-09T06:24:08;12.00;99.90
1992;DHT22;997;48.448;8.924;2022-11-09T06:26:34;12.10;99.90
1992;DHT22;997;48.448;8.924;2022-11-09T06:29:00;12.10;99.90
1992;DHT22;997;48.448;8.924;2022-11-09T06:31:26;12.10;99.90
1992;DHT22;997;48.448;8.924;2022-11-09T06:33:52;12.10;99.90
1992;DHT22;997;48.448;8.924;2022-11-09T06:36:18;12.10;99.90
1992;DHT22;997;48.448;8.924;2022-11-09T06:38:48;12.10;99.90
1992;DHT22;997;48.448;8.924;2022-11-09T06:41:14;12.20;99.90
1992;DHT22;997;48.448;8.924;2022-11-09T06:43:40;12.10;99.90
1992;DHT22;997;48.448;8.924;2022-11-09T06:46:06;12.10;99.90
1992;DHT22;997;48.448;8.924;2022-11-09T06:48:32;12.10;99.90
1992;DHT22;997;48.448;8.924;2022-11-09T06:51:02;12.10;99.90
1992;DHT22;997;48.448;8.924;2022-11-09T06:53:28;12.10;99.90
1992;DHT22;997;48.448;8.924;2022-11-09T06:56:00;12.10;99.90
1992;DHT22;997;48.448;8.924;2022-11-09T06:58:26;12.00;99.90
1992;DHT22;997;48.448;8.924;2022-11-09T07:00:52;12.00;99.90
1992;DHT22;997;48.448;8.924;2022-11-09T07:03:19;12.00;99.90
1992;DHT22;997;48.448;8.924;2022-11-09T07:05:46;11.90;99.90
1992;DHT22;997;48.448;8.924;2022-11-09T07:08:12;11.90;99.90
1992;DHT22;997;48.448;8.924;2022-11-09T07:10:38;11.80;99.90
1992;DHT22;997;48.448;8.924;2022-11-09T07:13:05;11.90;99.90
1992;DHT22;997;48.448;8.924;2022-11-09T07:15:32;11.90;99.90
1992;DHT22;997;48.448;8.924;2022-11-09T07:17:58;12.00;99.90
1992;DHT22;997;48.448;8.924;2022-11-09T07:20:24;11.90;99.90
1992;DHT22;997;48.448;8.924;2022-11-09T07:22:50;11.90;99.90
1992;DHT22;997;48.448;8.924;2022-11-09T07:25:16;11.90;99.90
1992;DHT22;997;48.448;8.924;2022-11-09T07:27:42;11.90;99.90
1992;DHT22;997;48.448;8.924;2022-11-09T07:30:08;11.80;99.90
1992;DHT22;997;48.448;8.924;2022-11-09T07:32:35;11.50;99.90
1992;DHT22;997;48.448;8.924;2022-11-09T07:35:03;11.20;99.90
1992;DHT22;997;48.448;8.924;2022-11-09T07:37:29;11.10;99.90
1992;DHT22;997;48.448;8.924;2022-11-09T07:39:55;11.00;99.90
1992;DHT22;997;48.448;8.924;2022-11-09T07:42:21;11.00;99.90
1992;DHT22;997;48.448;8.924;2022-11-09T07:44:46;11.00;99.90
1992;DHT22;997;48.448;8.924;2022-11-09T07:47:12;11.00;99.90
1992;DHT22;997;48.448;8.924;2022-11-09T07:49:38;11.10;99.90
1992;DHT22;997;48.448;8.924;2022-11-09T07:52:04;11.10;99.90
1992;DHT22;997;48.448;8.924;2022-11-09T07:54:29;11.30;99.90
1992;DHT22;997;48.448;8.924;2022-11-09T07:56:55;11.30;99.90
1992;DHT22;997;48.448;8.924;2022-11-09T07:59:21;11.40;99.90
1992;DHT22;997;48.448;8.924;2022-11-09T08:01:46;11.50;99.90
1992;DHT22;997;48.448;8.924;2022-11-09T08:04:12;11.60;99.90
1992;DHT22;997;48.448;8.924;2022-11-09T08:06:39;11.70;99.90
1992;DHT22;997;48.448;8.924;2022-11-09T08:09:05;11.90;99.90
1992;DHT22;997;48.448;8.924;2022-11-09T08:11:30;12.00;99.90
1992;DHT22;997;48.448;8.924;2022-11-09T08:13:56;12.10;99.90
1992;DHT22;997;48.448;8.924;2022-11-09T08:16:22;12.30;99.90
1992;DHT22;997;48.448;8.924;2022-11-09T08:18:49;12.50;99.90
1992;DHT22;997;48.448;8.924;2022-11-09T08:21:16;12.50;99.90
1992;DHT22;997;48.448;8.924;2022-11-09T08:23:41;12.50;99.90
1992;DHT22;997;48.448;8.924;2022-11-09T08:26:07;12.70;99.90
1992;DHT22;997;48.448;8.924;2022-11-09T08:28:33;12.80;99.90
1992;DHT22;997;48.448;8.924;2022-11-09T08:31:02;12.90;99.90
1992;DHT22;997;48.448;8.924;2022-11-09T08:33:31;12.90;99.90
1992;DHT22;997;48.448;8.924;2022-11-09T08:35:58;12.90;99.90
1992;DHT22;997;48.448;8.924;2022-11-09T08:38:23;12.70;99.90
1992;DHT22;997;48.448;8.924;2022-11-09T08:40:49;12.60;99.90
1992;DHT22;997;48.448;8.924;2022-11-09T08:43:15;12.60;99.90
1992;DHT22;997;48.448;8.924;2022-11-09T08:45:41;12.70;99.90
1992;DHT22;997;48.448;8.924;2022-11-09T08:48:09;12.70;99.90
1992;DHT22;997;48.448;8.924;2022-11-09T08:50:35;12.70;99.90
1992;DHT22;997;48.448;8.924;2022-11-09T08:53:02;12.60;99.90
1992;DHT22;997;48.448;8.924;2022-11-09T08:55:28;12.60;99.90
1992;DHT22;997;48.448;8.924;2022-11-09T08:57:59;12.60;99.90
1992;DHT22;997;48.448;8.924;2022-11-09T09:00:25;12.60;99.90
1992;DHT22;997;48.448;8.924;2022-11-09T09:02:51;12.60;99.90
1992;DHT22;997;48.448;8.924;2022-11-09T09:05:18;12.60;99.90
1992;DHT22;997;48.448;8.924;2022-11-09T09:07:44;12.50;99.90
1992;DHT22;997;48.448;8.924;2022-11-09T09:10:09;12.50;99.90
1992;DHT22;997;48.448;8.924;2022-11-09T09:12:35;12.50;99.90
1992;DHT22;997;48.448;8.924;2022-11-09T09:15:01;12.40;99.90
1992;DHT22;997;48.448;8.924;2022-11-09T09:17:27;12.40;99.90
1992;DHT22;997;48.448;8.924;2022-11-09T09:19:53;12.40;99.90
1992;DHT22;997;48.448;8.924;2022-11-09T09:22:18;12.40;99.90
1992;DHT22;997;48.448;8.924;2022-11-09T09:24:44;12.50;99.90
1992;DHT22;997;48.448;8.924;2022-11-09T09:27:10;12.50;99.90
1992;DHT22;997;48.448;8.924;2022-11-09T09:29:36;12.60;99.90
1992;DHT22;997;48.448;8.924;2022-11-09T09:32:01;12.60;99.90
1992;DHT22;997;48.448;8.924;2022-11-09T09:34:27;12.70;99.90
1992;DHT22;997;48.448;8.924;2022-11-09T09:36:53;12.80;99.90
1992;DHT22;997;48.448;8.924;2022-11-09T09:39:19;12.90;99.90
1992;DHT22;997;48.448;8.924;2022-11-09T09:41:52;12.90;99.90
1992;DHT22;997;48.448;8.924;2022-11-09T09:44:44;13.00;99.90
1992;DHT22;997;48.448;8.924;2022-11-09T09:49:46;13.20;99.90
1992;DHT22;997;48.448;8.924;2022-11-09T09:55:04;13.40;99.90
1992;DHT22;997;48.448;8.924;2022-11-09T09:57:34;13.60;99.90
1992;DHT22;997;48.448;8.924;2022-11-09T10:00:03;13.70;99.90
1992;DHT22;997;48.448;8.924;2022-11-09T10:02:34;13.80;99.90
1992;DHT22;997;48.448;8.924;2022-11-09T10:05:02;13.90;99.90
1992;DHT22;997;48.448;8.924;2022-11-09T10:13:32;14.20;99.90
1992;DHT22;997;48.448;8.924;2022-11-09T10:16:08;14.40;99.90
1992;DHT22;997;48.448;8.924;2022-11-09T10:27:24;14.60;99.90
1992;DHT22;997;48.448;8.924;2022-11-09T10:29:51;14.60;99.90
1992;DHT22;997;48.448;8.924;2022-11-09T10:32:20;14.70;99.90
1992;DHT22;997;48.448;8.924;2022-11-09T10:37:41;14.80;99.90
1992;DHT22;997;48.448;8.924;2022-11-09T10:42:34;15.00;99.90
1992;DHT22;997;48.448;8.924;2022-11-09T10:45:16;15.00;99.90
1992;DHT22;997;48.448;8.924;2022-11-09T10:47:47;15.10;99.90
1992;DHT22;997;48.448;8.924;2022-11-09T10:50:16;15.10;99.90
1992;DHT22;997;48.448;8.924;2022-11-09T10:52:45;15.20;99.90
1992;DHT22;997;48.448;8.924;2022-11-09T10:55:26;15.20;99.90
1992;DHT22;997;48.448;8.924;2022-11-09T11:01:18;15.10;99.90
1992;DHT22;997;48.448;8.924;2022-11-09T11:03:46;15.00;99.90
1992;DHT22;997;48.448;8.924;2022-11-09T11:06:14;15.00;99.90
1992;DHT22;997;48.448;8.924;2022-11-09T11:08:49;15.00;99.90
1992;DHT22;997;48.448;8.924;2022-11-09T11:11:25;15.10;99.90
1992;DHT22;997;48.448;8.924;2022-11-09T11:16:36;15.10;99.90
1992;DHT22;997;48.448;8.924;2022-11-09T11:19:03;15.00;99.90
1992;DHT22;997;48.448;8.924;2022-11-09T11:21:29;14.80;99.90
1992;DHT22;997;48.448;8.924;2022-11-09T11:24:13;14.80;99.90
1992;DHT22;997;48.448;8.924;2022-11-09T11:26:55;14.80;99.90
1992;DHT22;997;48.448;8.924;2022-11-09T11:32:15;14.80;99.90
1992;DHT22;997;48.448;8.924;2022-11-09T11:34:42;14.70;99.90
1992;DHT22;997;48.448;8.924;2022-11-09T11:45:13;14.90;99.90
1992;DHT22;997;48.448;8.924;2022-11-09T11:55:55;15.10;99.90
1992;DHT22;997;48.448;8.924;2022-11-09T12:06:40;15.20;99.90
1992;DHT22;997;48.448;8.924;2022-11-09T12:15:04;15.10;99.90
1992;DHT22;997;48.448;8.924;2022-11-09T12:17:44;15.10;99.90
1992;DHT22;997;48.448;8.924;2022-11-09T12:29:31;14.90;99.90
1992;DHT22;997;48.448;8.924;2022-11-09T12:34:34;15.00;99.90
1992;DHT22;997;48.448;8.924;2022-11-09T12:37:06;15.10;99.90
1992;DHT22;997;48.448;8.924;2022-11-09T12:39:46;15.20;99.90
1992;DHT22;997;48.448;8.924;2022-11-09T12:42:36;15.30;99.90
1992;DHT22;997;48.448;8.924;2022-11-09T12:45:28;15.30;99.90
1992;DHT22;997;48.448;8.924;2022-11-09T12:47:52;15.30;99.90
1992;DHT22;997;48.448;8.924;2022-11-09T12:50:22;15.40;99.90
1992;DHT22;997;48.448;8.924;2022-11-09T12:52:49;15.40;99.90
1992;DHT22;997;48.448;8.924;2022-11-09T12:55:48;15.30;99.90
1992;DHT22;997;48.448;8.924;2022-11-09T12:58:31;15.30;99.90
1992;DHT22;997;48.448;8.924;2022-11-09T13:01:02;15.20;99.90
1992;DHT22;997;48.448;8.924;2022-11-09T13:03:30;15.10;99.90
1992;DHT22;997;48.448;8.924;2022-11-09T13:08:56;15.10;99.90
1992;DHT22;997;48.448;8.924;2022-11-09T13:11:39;15.10;99.90
1992;DHT22;997;48.448;8.924;2022-11-09T13:17:01;14.90;99.90
1992;DHT22;997;48.448;8.924;2022-11-09T13:19:52;14.90;99.90
1992;DHT22;997;48.448;8.924;2022-11-09T13:24:55;15.00;99.90
1992;DHT22;997;48.448;8.924;2022-11-09T13:30:39;15.10;99.90
1992;DHT22;997;48.448;8.924;2022-11-09T13:38:22;15.10;99.90
1992;DHT22;997;48.448;8.924;2022-11-09T13:40:57;15.10;99.90
1992;DHT22;997;48.448;8.924;2022-11-09T13:43:24;15.10;99.90
1992;DHT22;997;48.448;8.924;2022-11-09T13:48:41;14.90;99.90
1992;DHT22;997;48.448;8.924;2022-11-09T13:51:14;14.90;99.90
1992;DHT22;997;48.448;8.924;2022-11-09T13:53:58;14.90;99.90
1992;DHT22;997;48.448;8.924;2022-11-09T14:01:49;14.70;99.90
1992;DHT22;997;48.448;8.924;2022-11-09T14:04:37;14.70;99.90
1992;DHT22;997;48.448;8.924;2022-11-09T14:10:05;14.80;99.90
1992;DHT22;997;48.448;8.924;2022-11-09T14:23:31;14.80;99.90
1992;DHT22;997;48.448;8.924;2022-11-09T14:25:57;14.90;99.90
1992;DHT22;997;48.448;8.924;2022-11-09T14:28:28;14.90;99.90
1992;DHT22;997;48.448;8.924;2022-11-09T14:30:54;15.00;99.90
1992;DHT22;997;48.448;8.924;2022-11-09T14:33:28;15.10;99.90
1992;DHT22;997;48.448;8.924;2022-11-09T14:35:58;15.20;99.90
1992;DHT22;997;48.448;8.924;2022-11-09T14:38:35;15.10;99.90
1992;DHT22;997;48.448;8.924;2022-11-09T14:41:20;15.10;99.90
1992;DHT22;997;48.448;8.924;2022-11-09T14:43:54;15.10;99.90
1992;DHT22;997;48.448;8.924;2022-11-09T14:46:26;15.00;99.90
1992;DHT22;997;48.448;8.924;2022-11-09T14:48:57;14.90;99.90
1992;DHT22;997;48.448;8.924;2022-11-09T14:51:32;14.80;99.90
1992;DHT22;997;48.448;8.924;2022-11-09T14:54:00;14.80;99.90
1992;DHT22;997;48.448;8.924;2022-11-09T14:56:27;14.50;99.90
1992;DHT22;997;48.448;8.924;2022-11-09T14:58:54;14.30;99.90
1992;DHT22;997;48.448;8.924;2022-11-09T15:01:23;14.20;99.90
1992;DHT22;997;48.448;8.924;2022-11-09T15:04:11;14.10;99.90
1992;DHT22;997;48.448;8.924;2022-11-09T15:06:49;14.10;99.90
1992;DHT22;997;48.448;8.924;2022-11-09T15:09:19;14.10;99.90
1992;DHT22;997;48.448;8.924;2022-11-09T15:11:46;14.10;99.90
1992;DHT22;997;48.448;8.924;2022-11-09T15:16:45;14.00;99.90
1992;DHT22;997;48.448;8.924;2022-11-09T15:19:22;14.00;99.90
1992;DHT22;997;48.448;8.924;2022-11-09T15:21:48;14.00;99.90
1992;DHT22;997;48.448;8.924;2022-11-09T15:24:16;13.90;99.90
1992;DHT22;997;48.448;8.924;2022-11-09T15:26:46;14.00;99.90
1992;DHT22;997;48.448;8.924;2022-11-09T15:29:38;14.00;99.90
1992;DHT22;997;48.448;8.924;2022-11-09T15:32:12;14.00;99.90
1992;DHT22;997;48.448;8.924;2022-11-09T15:34:56;13.90;99.90
1992;DHT22;997;48.448;8.924;2022-11-09T15:37:46;13.90;99.90
1992;DHT22;997;48.448;8.924;2022-11-09T15:40:17;13.70;99.90
1992;DHT22;997;48.448;8.924;2022-11-09T15:42:44;13.80;99.90
1992;DHT22;997;48.448;8.924;2022-11-09T15:45:14;13.80;99.90
1992;DHT22;997;48.448;8.924;2022-11-09T15:47:40;13.90;99.90
1992;DHT22;997;48.448;8.924;2022-11-09T15:50:23;13.90;99.90
1992;DHT22;997;48.448;8.924;2022-11-09T15:52:50;13.80;99.90
1992;DHT22;997;48.448;8.924;2022-11-09T15:55:18;13.70;99.90
1992;DHT22;997;48.448;8.924;2022-11-09T15:57:47;13.80;99.90
1992;DHT22;997;48.448;8.924;2022-11-09T16:00:15;13.80;99.90
1992;DHT22;997;48.448;8.924;2022-11-09T16:02:41;13.70;99.90
1992;DHT22;997;48.448;8.924;2022-11-09T16:05:07;13.70;99.90
1992;DHT22;997;48.448;8.924;2022-11-09T16:07:33;13.60;99.90
1992;DHT22;997;48.448;8.924;2022-11-09T16:09:58;13.50;99.90
1992;DHT22;997;48.448;8.924;2022-11-09T16:12:24;13.50;99.90
1992;DHT22;997;48.448;8.924;2022-11-09T16:14:50;13.50;99.90
1992;DHT22;997;48.448;8.924;2022-11-09T16:17:16;13.50;99.90
1992;DHT22;997;48.448;8.924;2022-11-09T16:19:42;13.50;99.90
1992;DHT22;997;48.448;8.924;2022-11-09T16:22:09;13.60;99.90
1992;DHT22;997;48.448;8.924;2022-11-09T16:24:36;13.60;99.90
1992;DHT22;997;48.448;8.924;2022-11-09T16:27:04;13.60;99.90
1992;DHT22;997;48.448;8.924;2022-11-09T16:29:31;13.60;99.90
1992;DHT22;997;48.448;8.924;2022-11-09T16:31:56;13.60;99.90
1992;DHT22;997;48.448;8.924;2022-11-09T16:34:22;13.50;99.90
1992;DHT22;997;48.448;8.924;2022-11-09T16:36:48;13.40;99.90
1992;DHT22;997;48.448;8.924;2022-11-09T16:39:14;13.40;99.90
1992;DHT22;997;48.448;8.924;2022-11-09T16:41:45;13.40;99.90
1992;DHT22;997;48.448;8.924;2022-11-09T16:44:14;13.40;99.90
1992;DHT22;997;48.448;8.924;2022-11-09T16:46:44;13.30;99.90
1992;DHT22;997;48.448;8.924;2022-11-09T16:49:11;13.30;99.90
1992;DHT22;997;48.448;8.924;2022-11-09T16:51:37;13.20;99.90
1992;DHT22;997;48.448;8.924;2022-11-09T16:54:02;13.10;99.90
1992;DHT22;997;48.448;8.924;2022-11-09T16:56:28;13.10;99.90
1992;DHT22;997;48.448;8.924;2022-11-09T16:58:54;13.00;99.90
1992;DHT22;997;48.448;8.924;2022-11-09T17:01:19;13.10;99.90
1992;DHT22;997;48.448;8.924;2022-11-09T17:03:46;13.10;99.90
1992;DHT22;997;48.448;8.924;2022-11-09T17:06:12;13.00;99.90
1992;DHT22;997;48.448;8.924;2022-11-09T17:08:39;12.90;99.90
1992;DHT22;997;48.448;8.924;2022-11-09T17:11:10;13.00;99.90
1992;DHT22;997;48.448;8.924;2022-11-09T17:13:37;13.10;99.90
1992;DHT22;997;48.448;8.924;2022-11-09T17:16:07;13.10;99.90
1992;DHT22;997;48.448;8.924;2022-11-09T17:28:48;13.00;99.90
1992;DHT22;997;48.448;8.924;2022-11-09T17:31:23;12.90;99.90
1992;DHT22;997;48.448;8.924;2022-11-09T17:33:50;12.80;99.90
1992;DHT22;997;48.448;8.924;2022-11-09T17:36:17;12.80;99.90
1992;DHT22;997;48.448;8.924;2022-11-09T17:38:43;12.70;99.90
1992;DHT22;997;48.448;8.924;2022-11-09T17:41:10;12.70;99.90
1992;DHT22;997;48.448;8.924;2022-11-09T17:43:38;12.60;99.90
1992;DHT22;997;48.448;8.924;2022-11-09T17:46:11;12.50;99.90
1992;DHT22;997;48.448;8.924;2022-11-09T17:48:38;12.50;99.90
1992;DHT22;997;48.448;8.924;2022-11-09T17:51:05;12.50;99.90
1992;DHT22;997;48.448;8.924;2022-11-09T17:53:31;12.50;99.90
1992;DHT22;997;48.448;8.924;2022-11-09T17:55:57;12.40;99.90
1992;DHT22;997;48.448;8.924;2022-11-09T17:58:23;12.40;99.90
1992;DHT22;997;48.448;8.924;2022-11-09T18:00:50;12.40;99.90
1992;DHT22;997;48.448;8.924;2022-11-09T18:03:15;12.50;99.90
1992;DHT22;997;48.448;8.924;2022-11-09T18:05:42;12.50;99.90
1992;DHT22;997;48.448;8.924;2022-11-09T18:08:09;12.50;99.90
1992;DHT22;997;48.448;8.924;2022-11-09T18:10:36;12.50;99.90
1992;DHT22;997;48.448;8.924;2022-11-09T18:13:04;12.50;99.90
1992;DHT22;997;48.448;8.924;2022-11-09T18:15:30;12.60;99.90
1992;DHT22;997;48.448;8.924;2022-11-09T18:17:56;12.60;99.90
1992;DHT22;997;48.448;8.924;2022-11-09T18:20:22;12.70;99.90
1992;DHT22;997;48.448;8.924;2022-11-09T18:22:52;12.60;99.90
1992;DHT22;997;48.448;8.924;2022-11-09T18:25:19;12.60;99.90
1992;DHT22;997;48.448;8.924;2022-11-09T18:27:44;12.70;99.90
1992;DHT22;997;48.448;8.924;2022-11-09T18:30:12;12.70;99.90
1992;DHT22;997;48.448;8.924;2022-11-09T18:32:38;12.80;99.90
1992;DHT22;997;48.448;8.924;2022-11-09T18:35:04;12.80;99.90
1992;DHT22;997;48.448;8.924;2022-11-09T18:37:37;12.90;99.90
1992;DHT22;997;48.448;8.924;2022-11-09T18:40:04;13.00;99.90
1992;DHT22;997;48.448;8.924;2022-11-09T18:42:30;13.10;99.90
1992;DHT22;997;48.448;8.924;2022-11-09T18:44:55;13.10;99.90
1992;DHT22;997;48.448;8.924;2022-11-09T18:47:21;13.10;99.90
1992;DHT22;997;48.448;8.924;2022-11-09T18:49:48;13.00;99.90
1992;DHT22;997;48.448;8.924;2022-11-09T18:52:14;13.00;99.90
1992;DHT22;997;48.448;8.924;2022-11-09T18:54:40;13.00;99.90
1992;DHT22;997;48.448;8.924;2022-11-09T18:57:05;12.90;99.90
1992;DHT22;997;48.448;8.924;2022-11-09T18:59:31;13.00;99.90
1992;DHT22;997;48.448;8.924;2022-11-09T19:01:58;13.00;99.90
1992;DHT22;997;48.448;8.924;2022-11-09T19:04:24;13.00;99.90
1992;DHT22;997;48.448;8.924;2022-11-09T19:06:50;13.00;99.90
1992;DHT22;997;48.448;8.924;2022-11-09T19:09:16;13.10;99.90
1992;DHT22;997;48.448;8.924;2022-11-09T19:11:59;13.00;99.90
1992;DHT22;997;48.448;8.924;2022-11-09T19:14:26;13.00;99.90
1992;DHT22;997;48.448;8.924;2022-11-09T19:16:52;13.10;99.90
1992;DHT22;997;48.448;8.924;2022-11-09T19:19:19;13.00;99.90
1992;DHT22;997;48.448;8.924;2022-11-09T19:21:50;13.00;99.90
1992;DHT22;997;48.448;8.924;2022-11-09T19:24:19;13.00;99.90
1992;DHT22;997;48.448;8.924;2022-11-09T19:26:45;13.00;99.90
1992;DHT22;997;48.448;8.924;2022-11-09T19:29:13;13.00;99.90
1992;DHT22;997;48.448;8.924;2022-11-09T19:31:40;12.90;99.90
1992;DHT22;997;48.448;8.924;2022-11-09T19:34:25;12.80;99.90
1992;DHT22;997;48.448;8.924;2022-11-09T19:36:51;12.70;99.90
1992;DHT22;997;48.448;8.924;2022-11-09T19:39:17;12.60;99.90
1992;DHT22;997;48.448;8.924;2022-11-09T19:41:42;12.60;99.90
1992;DHT22;997;48.448;8.924;2022-11-09T19:44:09;12.60;99.90
1992;DHT22;997;48.448;8.924;2022-11-09T19:46:37;12.70;99.90
1992;DHT22;997;48.448;8.924;2022-11-09T19:49:03;12.60;99.90
1992;DHT22;997;48.448;8.924;2022-11-09T19:51:30;12.70;99.90
1992;DHT22;997;48.448;8.924;2022-11-09T19:53:57;12.60;99.90
1992;DHT22;997;48.448;8.924;2022-11-09T19:56:25;12.70;99.90
1992;DHT22;997;48.448;8.924;2022-11-09T19:58:54;12.70;99.90
1992;DHT22;997;48.448;8.924;2022-11-09T20:01:20;12.60;99.90
1992;DHT22;997;48.448;8.924;2022-11-09T20:04:04;12.60;99.90
1992;DHT22;997;48.448;8.924;2022-11-09T20:06:29;12.60;99.90
1992;DHT22;997;48.448;8.924;2022-11-09T20:08:57;12.60;99.90
1992;DHT22;997;48.448;8.924;2022-11-09T20:11:24;12.70;99.90
1992;DHT22;997;48.448;8.924;2022-11-09T20:14:10;12.60;99.90
1992;DHT22;997;48.448;8.924;2022-11-09T20:16:37;12.70;99.90
1992;DHT22;997;48.448;8.924;2022-11-09T20:19:04;12.70;99.90
1992;DHT22;997;48.448;8.924;2022-11-09T20:21:30;12.60;99.90
1992;DHT22;997;48.448;8.924;2022-11-09T20:23:56;12.60;99.90
1992;DHT22;997;48.448;8.924;2022-11-09T20:26:22;12.60;99.90
1992;DHT22;997;48.448;8.924;2022-11-09T20:28:48;12.60;99.90
1992;DHT22;997;48.448;8.924;2022-11-09T20:31:16;12.70;99.90
1992;DHT22;997;48.448;8.924;2022-11-09T20:33:44;12.70;99.90
1992;DHT22;997;48.448;8.924;2022-11-09T20:36:09;12.70;99.90
1992;DHT22;997;48.448;8.924;2022-11-09T20:38:35;12.70;99.90
1992;DHT22;997;48.448;8.924;2022-11-09T20:41:04;12.70;99.90
1992;DHT22;997;48.448;8.924;2022-11-09T20:43:30;12.70;99.90
1992;DHT22;997;48.448;8.924;2022-11-09T20:46:01;12.60;99.90
1992;DHT22;997;48.448;8.924;2022-11-09T20:48:27;12.50;99.90
1992;DHT22;997;48.448;8.924;2022-11-09T20:50:54;12.50;99.90
1992;DHT22;997;48.448;8.924;2022-11-09T20:53:19;12.50;99.90
1992;DHT22;997;48.448;8.924;2022-11-09T20:55:45;12.40;99.90
1992;DHT22;997;48.448;8.924;2022-11-09T20:58:12;12.50;99.90
1992;DHT22;997;48.448;8.924;2022-11-09T21:00:38;12.50;99.90
1992;DHT22;997;48.448;8.924;2022-11-09T21:03:05;12.60;99.90
1992;DHT22;997;48.448;8.924;2022-11-09T21:05:31;12.70;99.90
1992;DHT22;997;48.448;8.924;2022-11-09T21:07:57;12.70;99.90
1992;DHT22;997;48.448;8.924;2022-11-09T21:10:23;12.70;99.90
1992;DHT22;997;48.448;8.924;2022-11-09T21:12:52;12.70;99.90
1992;DHT22;997;48.448;8.924;2022-11-09T21:15:18;12.70;99.90
1992;DHT22;997;48.448;8.924;2022-11-09T21:17:45;12.70;99.90
1992;DHT22;997;48.448;8.924;2022-11-09T21:20:10;12.70;99.90
1992;DHT22;997;48.448;8.924;2022-11-09T21:22:36;12.70;99.90
1992;DHT22;997;48.448;8.924;2022-11-09T21:25:20;12.70;99.90
1992;DHT22;997;48.448;8.924;2022-11-09T21:28:09;12.70;99.90
1992;DHT22;997;48.448;8.924;2022-11-09T21:30:59;12.60;99.90
1992;DHT22;997;48.448;8.924;2022-11-09T21:33:24;12.60;99.90
1992;DHT22;997;48.448;8.924;2022-11-09T21:35:50;12.50;99.90
1992;DHT22;997;48.448;8.924;2022-11-09T21:38:16;12.60;99.90
1992;DHT22;997;48.448;8.924;2022-11-09T21:40:41;12.60;99.90
1992;DHT22;997;48.448;8.924;2022-11-09T21:43:07;12.50;99.90
1992;DHT22;997;48.448;8.924;2022-11-09T21:45:33;12.20;99.90
1992;DHT22;997;48.448;8.924;2022-11-09T21:47:58;12.10;99.90
1992;DHT22;997;48.448;8.924;2022-11-09T21:50:24;12.30;99.90
1992;DHT22;997;48.448;8.924;2022-11-09T21:52:49;12.30;99.90
1992;DHT22;997;48.448;8.924;2022-11-09T21:55:15;12.40;99.90
1992;DHT22;997;48.448;8.924;2022-11-09T21:57:41;12.40;99.90
1992;DHT22;997;48.448;8.924;2022-11-09T22:00:07;12.50;99.90
1992;DHT22;997;48.448;8.924;2022-11-09T22:02:33;12.50;99.90
1992;DHT22;997;48.448;8.924;2022-11-09T22:04:59;12.70;99.90
1992;DHT22;997;48.448;8.924;2022-11-09T22:07:25;12.70;99.90
1992;DHT22;997;48.448;8.924;2022-11-09T22:09:51;12.90;99.90
1992;DHT22;997;48.448;8.924;2022-11-09T22:12:17;12.90;99.90
1992;DHT22;997;48.448;8.924;2022-11-09T22:15:02;12.90;99.90
1992;DHT22;997;48.448;8.924;2022-11-09T22:17:46;12.90;99.90
1992;DHT22;997;48.448;8.924;2022-11-09T22:20:11;13.00;99.90
1992;DHT22;997;48.448;8.924;2022-11-09T22:22:55;12.90;99.90
1992;DHT22;997;48.448;8.924;2022-11-09T22:25:21;12.90;99.90
1992;DHT22;997;48.448;8.924;2022-11-09T22:27:47;12.90;99.90
